sensor_id;sensor_type;location;lat;lon;timestamp;temperature;humidity
21318;DHT22;10818;50.830;6.524;2022-10-04T00:02:22;10.70;99.90
21318;DHT22;10818;50.830;6.524;2022-10-04T00:07:24;10.60;99.90
21318;DHT22;10818;50.830;6.524;2022-10-04T00:12:27;10.70;99.90
21318;DHT22;10818;50.830;6.524;2022-10-04T00:17:29;10.70;99.90
21318;DHT22;10818;50.830;6.524;2022-10-04T00:22:34;10.70;99.90
21318;DHT22;10818;50.830;6.524;2022-10-04T00:27:35;10.70;99.90
21318;DHT22;10818;50.830;6.524;2022-10-04T00:48:26;10.60;99.90
21318;DHT22;10818;50.830;6.524;2022-10-04T00:58:34;10.60;99.90
21318;DHT22;10818;50.830;6.524;2022-10-04T01:03:36;10.60;99.90
21318;DHT22;10818;50.830;6.524;2022-10-04T01:08:38;10.70;99.90
21318;DHT22;10818;50.830;6.524;2022-10-04T01:13:41;10.80;99.90
21318;DHT22;10818;50.830;6.524;2022-10-04T01:18:45;10.90;99.90
21318;DHT22;10818;50.830;6.524;2022-10-04T01:23:47;10.70;99.90
21318;DHT22;10818;50.830;6.524;2022-10-04T01:28:48;10.60;99.90
21318;DHT22;10818;50.830;6.524;2022-10-04T01:33:49;10.70;99.90
21318;DHT22;10818;50.830;6.524;2022-10-04T01:38:49;10.60;99.90
21318;DHT22;10818;50.830;6.524;2022-10-04T01:43:51;10.70;99.90
21318;DHT22;10818;50.830;6.524;2022-10-04T01:48:53;10.70;99.90
21318;DHT22;10818;50.830;6.524;2022-10-04T01:53:57;10.50;99.90
21318;DHT22;10818;50.830;6.524;2022-10-04T01:59:01;10.30;99.90
21318;DHT22;10818;50.830;6.524;2022-10-04T02:04:11;10.30;99.90
21318;DHT22;10818;50.830;6.524;2022-10-04T02:09:17;10.30;99.90
21318;DHT22;10818;50.830;6.524;2022-10-04T02:14:23;10.40;99.90
21318;DHT22;10818;50.830;6.524;2022-10-04T02:19:26;10.10;99.90
21318;DHT22;10818;50.830;6.524;2022-10-04T02:24:27;10.10;99.90
21318;DHT22;10818;50.830;6.524;2022-10-04T02:29:28;10.10;99.90
21318;DHT22;10818;50.830;6.524;2022-10-04T02:34:29;10.00;99.90
21318;DHT22;10818;50.830;6.524;2022-10-04T02:40:16;9.90;99.90
21318;DHT22;10818;50.830;6.524;2022-10-04T02:44:52;9.90;99.90
21318;DHT22;10818;50.830;6.524;2022-10-04T02:50:07;10.00;99.90
21318;DHT22;10818;50.830;6.524;2022-10-04T02:55:27;10.00;99.90
21318;DHT22;10818;50.830;6.524;2022-10-04T03:00:30;10.00;99.90
21318;DHT22;10818;50.830;6.524;2022-10-04T03:05:30;9.90;99.90
21318;DHT22;10818;50.830;6.524;2022-10-04T03:10:32;9.90;99.90
21318;DHT22;10818;50.830;6.524;2022-10-04T03:15:34;9.80;99.90
21318;DHT22;10818;50.830;6.524;2022-10-04T03:20:38;9.70;99.90
21318;DHT22;10818;50.830;6.524;2022-10-04T03:30:45;9.60;99.90
21318;DHT22;10818;50.830;6.524;2022-10-04T03:35:48;9.70;99.90
21318;DHT22;10818;50.830;6.524;2022-10-04T03:40:50;9.50;99.90
21318;DHT22;10818;50.830;6.524;2022-10-04T03:45:52;9.40;99.90
21318;DHT22;10818;50.830;6.524;2022-10-04T03:50:54;9.30;99.90
21318;DHT22;10818;50.830;6.524;2022-10-04T03:55:54;9.30;99.90
21318;DHT22;10818;50.830;6.524;2022-10-04T04:05:56;9.20;99.90
21318;DHT22;10818;50.830;6.524;2022-10-04T04:11:00;9.10;99.90
21318;DHT22;10818;50.830;6.524;2022-10-04T04:16:02;9.10;99.90
21318;DHT22;10818;50.830;6.524;2022-10-04T04:21:02;9.00;99.90
21318;DHT22;10818;50.830;6.524;2022-10-04T04:31:21;9.10;99.90
21318;DHT22;10818;50.830;6.524;2022-10-04T04:36:23;9.10;99.90
21318;DHT22;10818;50.830;6.524;2022-10-04T04:41:24;8.80;99.90
21318;DHT22;10818;50.830;6.524;2022-10-04T04:46:26;8.70;99.90
21318;DHT22;10818;50.830;6.524;2022-10-04T04:51:28;8.60;99.90
21318;DHT22;10818;50.830;6.524;2022-10-04T04:56:30;8.60;99.90
21318;DHT22;10818;50.830;6.524;2022-10-04T05:06:32;8.90;99.90
21318;DHT22;10818;50.830;6.524;2022-10-04T05:11:34;9.00;99.90
21318;DHT22;10818;50.830;6.524;2022-10-04T05:21:35;9.10;99.90
21318;DHT22;10818;50.830;6.524;2022-10-04T05:26:36;9.10;99.90
21318;DHT22;10818;50.830;6.524;2022-10-04T05:46:59;9.10;99.90
21318;DHT22;10818;50.830;6.524;2022-10-04T05:52:01;9.30;99.90
21318;DHT22;10818;50.830;6.524;2022-10-04T06:02:31;9.60;99.90
21318;DHT22;10818;50.830;6.524;2022-10-04T06:07:45;9.70;99.90
21318;DHT22;10818;50.830;6.524;2022-10-04T06:12:50;9.80;99.90
21318;DHT22;10818;50.830;6.524;2022-10-04T06:23:24;10.00;99.90
21318;DHT22;10818;50.830;6.524;2022-10-04T06:29:09;10.00;99.90
21318;DHT22;10818;50.830;6.524;2022-10-04T07:09:35;11.90;99.90
21318;DHT22;10818;50.830;6.524;2022-10-04T07:14:42;12.40;99.90
21318;DHT22;10818;50.830;6.524;2022-10-04T07:19:45;13.00;99.90
21318;DHT22;10818;50.830;6.524;2022-10-04T07:29:56;14.00;99.90
21318;DHT22;10818;50.830;6.524;2022-10-04T07:50:23;14.50;99.90
21318;DHT22;10818;50.830;6.524;2022-10-04T07:55:37;15.30;99.90
21318;DHT22;10818;50.830;6.524;2022-10-04T08:00:48;15.80;99.90
21318;DHT22;10818;50.830;6.524;2022-10-04T08:11:28;23.30;99.90
21318;DHT22;10818;50.830;6.524;2022-10-04T08:27:34;23.70;99.90
21318;DHT22;10818;50.830;6.524;2022-10-04T08:38:00;25.30;99.90
21318;DHT22;10818;50.830;6.524;2022-10-04T08:43:09;29.80;96.70
21318;DHT22;10818;50.830;6.524;2022-10-04T08:48:21;31.20;90.70
21318;DHT22;10818;50.830;6.524;2022-10-04T08:53:41;30.80;88.60
21318;DHT22;10818;50.830;6.524;2022-10-04T08:58:59;26.10;94.20
21318;DHT22;10818;50.830;6.524;2022-10-04T09:04:12;22.40;99.90
21318;DHT22;10818;50.830;6.524;2022-10-04T09:25:06;19.30;99.90
21318;DHT22;10818;50.830;6.524;2022-10-04T09:30:18;19.10;99.90
21318;DHT22;10818;50.830;6.524;2022-10-04T09:45:46;18.60;99.90
21318;DHT22;10818;50.830;6.524;2022-10-04T09:56:08;18.80;99.90
21318;DHT22;10818;50.830;6.524;2022-10-04T10:11:55;19.20;99.90
21318;DHT22;10818;50.830;6.524;2022-10-04T10:22:54;19.40;99.90
21318;DHT22;10818;50.830;6.524;2022-10-04T11:04:00;19.90;99.90
21318;DHT22;10818;50.830;6.524;2022-10-04T11:09:22;19.60;99.90
21318;DHT22;10818;50.830;6.524;2022-10-04T11:14:34;20.00;99.90
21318;DHT22;10818;50.830;6.524;2022-10-04T11:19:50;19.90;99.90
21318;DHT22;10818;50.830;6.524;2022-10-04T11:30:19;20.10;99.90
21318;DHT22;10818;50.830;6.524;2022-10-04T12:22:37;20.80;99.90
21318;DHT22;10818;50.830;6.524;2022-10-04T12:33:14;21.10;99.90
21318;DHT22;10818;50.830;6.524;2022-10-04T12:43:33;21.30;99.90
21318;DHT22;10818;50.830;6.524;2022-10-04T12:59:26;21.30;99.90
21318;DHT22;10818;50.830;6.524;2022-10-04T13:05:32;21.50;99.90
21318;DHT22;10818;50.830;6.524;2022-10-04T13:15:21;21.50;99.90
21318;DHT22;10818;50.830;6.524;2022-10-04T13:20:44;21.60;99.90
21318;DHT22;10818;50.830;6.524;2022-10-04T13:31:06;21.60;99.90
21318;DHT22;10818;50.830;6.524;2022-10-04T13:36:20;21.70;99.90
21318;DHT22;10818;50.830;6.524;2022-10-04T13:58:01;22.00;99.90
21318;DHT22;10818;50.830;6.524;2022-10-04T14:34:24;22.00;99.90
21318;DHT22;10818;50.830;6.524;2022-10-04T14:49:46;22.00;99.90
21318;DHT22;10818;50.830;6.524;2022-10-04T14:54:55;21.70;99.90
21318;DHT22;10818;50.830;6.524;2022-10-04T15:00:47;21.60;99.90
21318;DHT22;10818;50.830;6.524;2022-10-04T15:05:29;21.50;99.90
21318;DHT22;10818;50.830;6.524;2022-10-04T15:10:34;21.50;99.90
21318;DHT22;10818;50.830;6.524;2022-10-04T15:15:48;21.40;99.90
21318;DHT22;10818;50.830;6.524;2022-10-04T15:20:56;21.30;99.90
21318;DHT22;10818;50.830;6.524;2022-10-04T15:26:04;21.30;99.90
21318;DHT22;10818;50.830;6.524;2022-10-04T15:31:27;21.20;99.90
21318;DHT22;10818;50.830;6.524;2022-10-04T15:41:44;21.20;99.90
21318;DHT22;10818;50.830;6.524;2022-10-04T15:47:07;21.00;99.90
21318;DHT22;10818;50.830;6.524;2022-10-04T15:52:13;20.70;99.90
21318;DHT22;10818;50.830;6.524;2022-10-04T15:57:40;20.70;99.90
21318;DHT22;10818;50.830;6.524;2022-10-04T16:23:35;20.00;99.90
21318;DHT22;10818;50.830;6.524;2022-10-04T16:38:59;19.30;99.90
21318;DHT22;10818;50.830;6.524;2022-10-04T16:44:25;19.00;99.90
21318;DHT22;10818;50.830;6.524;2022-10-04T16:49:35;18.70;99.90
21318;DHT22;10818;50.830;6.524;2022-10-04T16:59:58;18.10;99.90
21318;DHT22;10818;50.830;6.524;2022-10-04T17:05:52;17.80;99.90
21318;DHT22;10818;50.830;6.524;2022-10-04T17:10:31;17.60;99.90
21318;DHT22;10818;50.830;6.524;2022-10-04T17:15:40;17.20;99.90
21318;DHT22;10818;50.830;6.524;2022-10-04T17:20:55;16.90;99.90
21318;DHT22;10818;50.830;6.524;2022-10-04T17:41:45;15.90;99.90
21318;DHT22;10818;50.830;6.524;2022-10-04T17:46:54;15.80;99.90
21318;DHT22;10818;50.830;6.524;2022-10-04T17:51:59;15.50;99.90
21318;DHT22;10818;50.830;6.524;2022-10-04T17:57:24;15.50;99.90
21318;DHT22;10818;50.830;6.524;2022-10-04T18:02:30;15.20;99.90
21318;DHT22;10818;50.830;6.524;2022-10-04T18:07:36;15.10;99.90
21318;DHT22;10818;50.830;6.524;2022-10-04T18:13:26;15.00;99.90
21318;DHT22;10818;50.830;6.524;2022-10-04T18:28:26;14.60;99.90
21318;DHT22;10818;50.830;6.524;2022-10-04T18:33:43;14.40;99.90
21318;DHT22;10818;50.830;6.524;2022-10-04T18:38:46;14.40;99.90
21318;DHT22;10818;50.830;6.524;2022-10-04T18:48:58;14.10;99.90
21318;DHT22;10818;50.830;6.524;2022-10-04T18:54:08;14.00;99.90
21318;DHT22;10818;50.830;6.524;2022-10-04T19:04:34;14.00;99.90
21318;DHT22;10818;50.830;6.524;2022-10-04T19:19:59;13.80;99.90
21318;DHT22;10818;50.830;6.524;2022-10-04T19:25:17;13.80;99.90
21318;DHT22;10818;50.830;6.524;2022-10-04T19:30:26;13.70;99.90
21318;DHT22;10818;50.830;6.524;2022-10-04T19:35:44;13.60;99.90
21318;DHT22;10818;50.830;6.524;2022-10-04T19:46:06;13.70;99.90
21318;DHT22;10818;50.830;6.524;2022-10-04T19:56:31;13.70;99.90
21318;DHT22;10818;50.830;6.524;2022-10-04T20:01:35;13.80;99.90
21318;DHT22;10818;50.830;6.524;2022-10-04T20:06:36;13.70;99.90
21318;DHT22;10818;50.830;6.524;2022-10-04T20:21:47;13.50;99.90
21318;DHT22;10818;50.830;6.524;2022-10-04T20:26:48;13.40;99.90
21318;DHT22;10818;50.830;6.524;2022-10-04T20:31:52;13.30;99.90
21318;DHT22;10818;50.830;6.524;2022-10-04T20:36:52;13.10;99.90
21318;DHT22;10818;50.830;6.524;2022-10-04T20:42:02;12.90;99.90
21318;DHT22;10818;50.830;6.524;2022-10-04T20:52:32;12.90;99.90
21318;DHT22;10818;50.830;6.524;2022-10-04T20:57:36;12.80;99.90
21318;DHT22;10818;50.830;6.524;2022-10-04T21:02:38;12.70;99.90
21318;DHT22;10818;50.830;6.524;2022-10-04T21:07:38;12.70;99.90
21318;DHT22;10818;50.830;6.524;2022-10-04T21:12:39;12.70;99.90
21318;DHT22;10818;50.830;6.524;2022-10-04T21:17:39;12.70;99.90
21318;DHT22;10818;50.830;6.524;2022-10-04T21:22:46;12.80;99.90
21318;DHT22;10818;50.830;6.524;2022-10-04T21:27:46;12.80;99.90
21318;DHT22;10818;50.830;6.524;2022-10-04T21:32:47;12.80;99.90
21318;DHT22;10818;50.830;6.524;2022-10-04T21:37:47;12.80;99.90
21318;DHT22;10818;50.830;6.524;2022-10-04T21:42:48;12.70;99.90
21318;DHT22;10818;50.830;6.524;2022-10-04T21:47:48;12.70;99.90
21318;DHT22;10818;50.830;6.524;2022-10-04T21:52:49;12.60;99.90
21318;DHT22;10818;50.830;6.524;2022-10-04T21:57:49;12.60;99.90
21318;DHT22;10818;50.830;6.524;2022-10-04T22:02:50;12.60;99.90
21318;DHT22;10818;50.830;6.524;2022-10-04T22:07:50;12.60;99.90
21318;DHT22;10818;50.830;6.524;2022-10-04T22:12:50;12.60;99.90
21318;DHT22;10818;50.830;6.524;2022-10-04T22:17:55;12.60;99.90
21318;DHT22;10818;50.830;6.524;2022-10-04T22:22:56;12.50;99.90
21318;DHT22;10818;50.830;6.524;2022-10-04T22:27:57;12.50;99.90
21318;DHT22;10818;50.830;6.524;2022-10-04T22:32:59;12.40;99.90
21318;DHT22;10818;50.830;6.524;2022-10-04T22:38:00;12.40;99.90
21318;DHT22;10818;50.830;6.524;2022-10-04T22:43:01;12.30;99.90
21318;DHT22;10818;50.830;6.524;2022-10-04T22:48:08;12.20;99.90
21318;DHT22;10818;50.830;6.524;2022-10-04T22:53:11;12.10;99.90
21318;DHT22;10818;50.830;6.524;2022-10-04T22:58:13;12.20;99.90
21318;DHT22;10818;50.830;6.524;2022-10-04T23:03:21;12.00;99.90
21318;DHT22;10818;50.830;6.524;2022-10-04T23:08:24;12.00;99.90
21318;DHT22;10818;50.830;6.524;2022-10-04T23:13:25;12.10;99.90
21318;DHT22;10818;50.830;6.524;2022-10-04T23:18:26;12.10;99.90
21318;DHT22;10818;50.830;6.524;2022-10-04T23:23:27;12.10;99.90
21318;DHT22;10818;50.830;6.524;2022-10-04T23:28:29;12.10;99.90
21318;DHT22;10818;50.830;6.524;2022-10-04T23:33:30;12.10;99.90
21318;DHT22;10818;50.830;6.524;2022-10-04T23:38:30;12.00;99.90
21318;DHT22;10818;50.830;6.524;2022-10-04T23:43:31;12.00;99.90
21318;DHT22;10818;50.830;6.524;2022-10-04T23:48:31;12.00;99.90
21318;DHT22;10818;50.830;6.524;2022-10-04T23:53:32;12.00;99.90
21318;DHT22;10818;50.830;6.524;2022-10-04T23:58:33;12.00;99.90
